地図

経路データ

SID SEASON NUMBER BASIN SUBBASIN NAME ISO_TIME NATURE LAT LON WMO_WIND WMO_PRES WMO_AGENCY TRACK_TYPE DIST2LAND LANDFALL IFLAG USA_AGENCY USA_ATCF_ID USA_LAT USA_LON USA_RECORD USA_STATUS USA_WIND USA_PRES USA_SSHS USA_R34_NE USA_R34_SE USA_R34_SW USA_R34_NW USA_R50_NE USA_R50_SE USA_R50_SW USA_R50_NW USA_R64_NE USA_R64_SE USA_R64_SW USA_R64_NW USA_POCI USA_ROCI USA_RMW USA_EYE TOKYO_LAT TOKYO_LON TOKYO_GRADE TOKYO_WIND TOKYO_PRES TOKYO_R50_DIR TOKYO_R50_LONG TOKYO_R50_SHORT TOKYO_R30_DIR TOKYO_R30_LONG TOKYO_R30_SHORT TOKYO_LAND CMA_LAT CMA_LON CMA_CAT CMA_WIND CMA_PRES HKO_LAT HKO_LON HKO_CAT HKO_WIND HKO_PRES NEWDELHI_LAT NEWDELHI_LON NEWDELHI_GRADE NEWDELHI_WIND NEWDELHI_PRES NEWDELHI_CI NEWDELHI_DP NEWDELHI_POCI REUNION_LAT REUNION_LON REUNION_TYPE REUNION_WIND REUNION_PRES REUNION_TNUM REUNION_CI REUNION_RMW REUNION_R34_NE REUNION_R34_SE REUNION_R34_SW REUNION_R34_NW REUNION_R50_NE REUNION_R50_SE REUNION_R50_SW REUNION_R50_NW REUNION_R64_NE REUNION_R64_SE REUNION_R64_SW REUNION_R64_NW BOM_LAT BOM_LON BOM_TYPE BOM_WIND BOM_PRES BOM_TNUM BOM_CI BOM_RMW BOM_R34_NE BOM_R34_SE BOM_R34_SW BOM_R34_NW BOM_R50_NE BOM_R50_SE BOM_R50_SW BOM_R50_NW BOM_R64_NE BOM_R64_SE BOM_R64_SW BOM_R64_NW BOM_ROCI BOM_POCI BOM_EYE BOM_POS_METHOD BOM_PRES_METHOD NADI_LAT NADI_LON NADI_CAT NADI_WIND NADI_PRES WELLINGTON_LAT WELLINGTON_LON WELLINGTON_WIND WELLINGTON_PRES DS824_LAT DS824_LON DS824_STAGE DS824_WIND DS824_PRES TD9636_LAT TD9636_LON TD9636_STAGE TD9636_WIND TD9636_PRES TD9635_LAT TD9635_LON TD9635_WIND TD9635_PRES TD9635_ROCI NEUMANN_LAT NEUMANN_LON NEUMANN_CLASS NEUMANN_WIND NEUMANN_PRES MLC_LAT MLC_LON MLC_CLASS MLC_WIND MLC_PRES USA_GUST BOM_GUST BOM_GUST_PER REUNION_GUST REUNION_GUST_PER USA_SEAHGT USA_SEARAD_NE USA_SEARAD_SE USA_SEARAD_SW USA_SEARAD_NW STORM_SPEED STORM_DIR
1931252N23127 1931 38 WP MM NOT_NAMED 1931-09-09 10:00:00 NR 22.5000 126.500 main 519 500 __________O___ -1 22.5000 126.500 7 6 339
1931252N23127 1931 38 WP MM NOT_NAMED 1931-09-09 12:00:00 NR 22.6736 126.426 main 500 482 __________P___ -1 22.6736 126.426 7 6 339
1931252N23127 1931 38 WP MM NOT_NAMED 1931-09-09 15:00:00 NR 22.9377 126.312 main 482 460 __________P___ -1 22.9377 126.312 7 6 338
1931252N23127 1931 38 WP MM NOT_NAMED 1931-09-09 18:00:00 NR 23.2111 126.189 main 460 440 __________P___ -1 23.2111 126.189 7 6 337
1931252N23127 1931 38 WP MM NOT_NAMED 1931-09-09 21:00:00 NR 23.4995 126.050 main 440 428 __________P___ -1 23.4995 126.050 7 6 336
1931252N23127 1931 38 WP MM NOT_NAMED 1931-09-09 22:00:00 NR 23.6000 126.000 main 428 413 __________O___ -1 23.6000 126.000 7 7 335
1931252N23127 1931 38 WP MM NOT_NAMED 1931-09-10 00:00:00 NR 23.8079 125.892 main 413 387 __________P___ -1 23.8079 125.892 7 7 334
1931252N23127 1931 38 WP MM NOT_NAMED 1931-09-10 03:00:00 NR 24.1324 125.718 main 387 357 __________P___ -1 24.1324 125.718 7 7 334
1931252N23127 1931 38 WP MM NOT_NAMED 1931-09-10 06:00:00 NR 24.4638 125.536 main 357 343 __________P___ -1 24.4638 125.536 7 7 334
1931252N23127 1931 38 WP MM NOT_NAMED 1931-09-10 09:00:00 NR 24.7926 125.357 main 343 332 __________P___ -1 24.7926 125.357 7 7 334
1931252N23127 1931 38 WP MM NOT_NAMED 1931-09-10 10:00:00 NR 24.9000 125.300 main 332 322 __________O___ -1 24.9000 125.300 3 7 333
1931252N23127 1931 38 WP MM NOT_NAMED 1931-09-10 12:00:00 NR 25.0899 125.191 main 322 304 __________P___ -1 25.0899 125.191 3 6 333
1931252N23127 1931 38 WP MM NOT_NAMED 1931-09-10 15:00:00 NR 25.3682 125.035 main 304 296 __________P___ -1 25.3682 125.035 3 6 334
1931252N23127 1931 38 WP MM NOT_NAMED 1931-09-10 18:00:00 NR 25.6580 124.886 main 301 291 __________P___ -1 25.6580 124.886 3 7 337
1931252N23127 1931 38 WP MM NOT_NAMED 1931-09-10 21:00:00 NR 25.9811 124.745 main 292 292 __________P___ -1 25.9811 124.745 3 7 339
1931252N23127 1931 38 WP MM NOT_NAMED 1931-09-10 22:00:00 NR 26.1000 124.700 main 297 292 __________O___ -1 26.1000 124.700 4 8 342
1931252N23127 1931 38 WP MM NOT_NAMED 1931-09-11 00:00:00 NR 26.3605 124.606 main 303 301 __________P___ -1 26.3605 124.606 4 9 343
1931252N23127 1931 38 WP MM NOT_NAMED 1931-09-11 03:00:00 NR 26.7890 124.471 main 320 287 __________P___ -1 26.7890 124.471 4 9 346
1931252N23127 1931 38 WP MM NOT_NAMED 1931-09-11 06:00:00 NR 27.2516 124.345 main 287 263 __________P___ -1 27.2516 124.345 4 10 347
1931252N23127 1931 38 WP MM NOT_NAMED 1931-09-11 09:00:00 NR 27.7359 124.234 main 263 258 __________P___ -1 27.7359 124.234 4 10 348
1931252N23127 1931 38 WP MM NOT_NAMED 1931-09-11 10:00:00 NR 27.9000 124.200 main 258 233 __________O___ -1 27.9000 124.200 4 10 350
1931252N23127 1931 38 WP MM NOT_NAMED 1931-09-11 12:00:00 NR 28.2299 124.138 main 233 211 __________P___ -1 28.2299 124.138 4 10 351
1931252N23127 1931 38 WP MM NOT_NAMED 1931-09-11 15:00:00 NR 28.7281 124.057 main 211 193 __________P___ -1 28.7281 124.057 4 10 353
1931252N23127 1931 38 WP MM NOT_NAMED 1931-09-11 18:00:00 NR 29.2294 123.986 main 193 186 __________P___ -1 29.2294 123.986 4 10 353
1931252N23127 1931 38 WP MM NOT_NAMED 1931-09-11 21:00:00 NR 29.7322 123.921 main 192 192 __________P___ -1 29.7322 123.921 4 10 354
1931252N23127 1931 38 WP MM NOT_NAMED 1931-09-11 22:00:00 NR 29.9000 123.900 main 192 __________O___ -1 29.9000 123.900 4 10 358

デジタル台風データ・検索

IBTrACS Databaseについて

本データベースは、米国NOAAが公開する1842年以降の世界の熱帯低気圧のベストトラックデータアーカイブInternational Best Track Archive for Climate Stewardship (IBTrACS)を、ウェブで閲覧しやすい形式に変換したものです。

最終更新日:2021-10-08